sensor_id;sensor_type;location;lat;lon;timestamp;pressure;altitude;pressure_sealevel;temperature;humidity
44127;BME280;29786;50.798;7.302;2023-02-21T00:05:40;99680;;;6.63;100
44127;BME280;29786;50.798;7.302;2023-02-21T00:10:36;99670;;;6.59;100
44127;BME280;29786;50.798;7.302;2023-02-21T00:15:33;99670;;;6.57;100
44127;BME280;29786;50.798;7.302;2023-02-21T00:20:29;99670;;;6.65;100
44127;BME280;29786;50.798;7.302;2023-02-21T00:25:26;99670;;;6.85;100
44127;BME280;29786;50.798;7.302;2023-02-21T00:31:37;99680;;;6.81;100
44127;BME280;29786;50.798;7.302;2023-02-21T00:36:33;99650;;;6.82;100
44127;BME280;29786;50.798;7.302;2023-02-21T00:41:30;99670;;;7.02;100
44127;BME280;29786;50.798;7.302;2023-02-21T00:46:26;99670;;;7.03;100
44127;BME280;29786;50.798;7.302;2023-02-21T00:52:37;99680;;;6.83;100
44127;BME280;29786;50.798;7.302;2023-02-21T00:57:33;99660;;;6.7;100
44127;BME280;29786;50.798;7.302;2023-02-21T01:08:42;99670;;;6.98;100
44127;BME280;29786;50.798;7.302;2023-02-21T01:13:37;99670;;;7.11;100
44127;BME280;29786;50.798;7.302;2023-02-21T01:18:34;99670;;;7.18;100
44127;BME280;29786;50.798;7.302;2023-02-21T01:23:31;99670;;;7.22;100
44127;BME280;29786;50.798;7.302;2023-02-21T01:28:27;99660;;;7.17;100
44127;BME280;29786;50.798;7.302;2023-02-21T01:34:37;99670;;;7.28;100
44127;BME280;29786;50.798;7.302;2023-02-21T01:39:34;99660;;;7.29;100
44127;BME280;29786;50.798;7.302;2023-02-21T01:44:33;99660;;;7.19;100
44127;BME280;29786;50.798;7.302;2023-02-21T01:49:27;99660;;;7.06;100
44127;BME280;29786;50.798;7.302;2023-02-21T01:55:38;99660;;;7.04;100
44127;BME280;29786;50.798;7.302;2023-02-21T02:00:34;99650;;;7.13;100
44127;BME280;29786;50.798;7.302;2023-02-21T02:05:31;99640;;;7.18;100
44127;BME280;29786;50.798;7.302;2023-02-21T02:10:27;99650;;;7.19;100
44127;BME280;29786;50.798;7.302;2023-02-21T02:16:56;99640;;;7.44;100
44127;BME280;29786;50.798;7.302;2023-02-21T02:21:57;99640;;;7.25;100
44127;BME280;29786;50.798;7.302;2023-02-21T02:26:51;99630;;;7.25;100
44127;BME280;29786;50.798;7.302;2023-02-21T02:37:55;99630;;;7.22;100
44127;BME280;29786;50.798;7.302;2023-02-21T02:42:39;99630;;;7.32;100
44127;BME280;29786;50.798;7.302;2023-02-21T02:47:33;99630;;;7.35;100
44127;BME280;29786;50.798;7.302;2023-02-21T02:52:28;99620;;;7.4;100
44127;BME280;29786;50.798;7.302;2023-02-21T02:58:41;99620;;;7.54;100
44127;BME280;29786;50.798;7.302;2023-02-21T03:03:42;99620;;;7.33;100
44127;BME280;29786;50.798;7.302;2023-02-21T03:08:39;99620;;;7.33;100
44127;BME280;29786;50.798;7.302;2023-02-21T03:19:39;99620;;;7.24;100
44127;BME280;29786;50.798;7.302;2023-02-21T03:24:35;99620;;;7.43;100
44127;BME280;29786;50.798;7.302;2023-02-21T03:29:32;99620;;;7.46;100
44127;BME280;29786;50.798;7.302;2023-02-21T03:34:28;99610;;;7.43;100
44127;BME280;29786;50.798;7.302;2023-02-21T03:40:39;99610;;;7.34;100
44127;BME280;29786;50.798;7.302;2023-02-21T03:45:35;99610;;;7.38;100
44127;BME280;29786;50.798;7.302;2023-02-21T03:50:32;99610;;;7.56;100
44127;BME280;29786;50.798;7.302;2023-02-21T03:55:28;99610;;;7.57;100
44127;BME280;29786;50.798;7.302;2023-02-21T04:01:39;99600;;;7.52;100
44127;BME280;29786;50.798;7.302;2023-02-21T04:06:36;99600;;;7.43;100
44127;BME280;29786;50.798;7.302;2023-02-21T04:11:32;99600;;;7.4;100
44127;BME280;29786;50.798;7.302;2023-02-21T04:16:29;99600;;;7.48;100
44127;BME280;29786;50.798;7.302;2023-02-21T04:22:39;99600;;;7.4;100
44127;BME280;29786;50.798;7.302;2023-02-21T04:27:36;99600;;;7.43;100
44127;BME280;29786;50.798;7.302;2023-02-21T04:32:33;99600;;;7.52;100
44127;BME280;29786;50.798;7.302;2023-02-21T04:37:29;99600;;;7.48;100
44127;BME280;29786;50.798;7.302;2023-02-21T04:43:40;99600;;;7.59;100
44127;BME280;29786;50.798;7.302;2023-02-21T04:48:36;99600;;;7.64;100
44127;BME280;29786;50.798;7.302;2023-02-21T04:53:33;99590;;;7.51;100
44127;BME280;29786;50.798;7.302;2023-02-21T04:58:29;99590;;;7.47;100
44127;BME280;29786;50.798;7.302;2023-02-21T05:04:40;99590;;;7.41;100
44127;BME280;29786;50.798;7.302;2023-02-21T05:09:37;99590;;;7.52;100
44127;BME280;29786;50.798;7.302;2023-02-21T05:14:33;99570;;;7.39;100
44127;BME280;29786;50.798;7.302;2023-02-21T05:19:30;99600;;;7.42;100
44127;BME280;29786;50.798;7.302;2023-02-21T05:25:40;99590;;;7.37;100
44127;BME280;29786;50.798;7.302;2023-02-21T05:30:37;99590;;;7.38;100
44127;BME280;29786;50.798;7.302;2023-02-21T05:35:33;99570;;;7.3;100
44127;BME280;29786;50.798;7.302;2023-02-21T05:40:30;99580;;;7.41;100
44127;BME280;29786;50.798;7.302;2023-02-21T05:46:40;99580;;;7.34;100
44127;BME280;29786;50.798;7.302;2023-02-21T05:51:38;99580;;;7.4;100
44127;BME280;29786;50.798;7.302;2023-02-21T05:56:38;99560;;;7.34;100
44127;BME280;29786;50.798;7.302;2023-02-21T06:01:30;99580;;;7.52;100
44127;BME280;29786;50.798;7.302;2023-02-21T06:06:27;99590;;;7.43;100
44127;BME280;29786;50.798;7.302;2023-02-21T06:12:37;99590;;;7.46;100
44127;BME280;29786;50.798;7.302;2023-02-21T06:22:30;99590;;;7.51;100
44127;BME280;29786;50.798;7.302;2023-02-21T06:27:27;99590;;;7.53;100
44127;BME280;29786;50.798;7.302;2023-02-21T06:33:37;99590;;;7.68;100
44127;BME280;29786;50.798;7.302;2023-02-21T06:38:34;99590;;;7.68;100
44127;BME280;29786;50.798;7.302;2023-02-21T06:43:31;99590;;;7.58;100
44127;BME280;29786;50.798;7.302;2023-02-21T06:48:27;99590;;;7.65;100
44127;BME280;29786;50.798;7.302;2023-02-21T06:54:38;99590;;;7.61;100
44127;BME280;29786;50.798;7.302;2023-02-21T06:59:34;99580;;;7.76;100
44127;BME280;29786;50.798;7.302;2023-02-21T07:04:31;99580;;;7.65;100
44127;BME280;29786;50.798;7.302;2023-02-21T07:09:27;99590;;;7.76;100
44127;BME280;29786;50.798;7.302;2023-02-21T07:15:38;99600;;;7.81;100
44127;BME280;29786;50.798;7.302;2023-02-21T07:20:35;99590;;;7.87;100
44127;BME280;29786;50.798;7.302;2023-02-21T07:25:31;99590;;;8.22;100
44127;BME280;29786;50.798;7.302;2023-02-21T07:30:28;99600;;;8.37;100
44127;BME280;29786;50.798;7.302;2023-02-21T07:36:38;99590;;;8.22;100
44127;BME280;29786;50.798;7.302;2023-02-21T07:41:35;99600;;;8.14;100
44127;BME280;29786;50.798;7.302;2023-02-21T07:46:32;99600;;;8.1;100
44127;BME280;29786;50.798;7.302;2023-02-21T07:51:28;99600;;;8.38;100
44127;BME280;29786;50.798;7.302;2023-02-21T07:57:39;99600;;;8.41;100
44127;BME280;29786;50.798;7.302;2023-02-21T08:02:35;99610;;;8.26;100
44127;BME280;29786;50.798;7.302;2023-02-21T08:07:32;99610;;;8.22;100
44127;BME280;29786;50.798;7.302;2023-02-21T08:12:28;99610;;;8.22;100
44127;BME280;29786;50.798;7.302;2023-02-21T08:18:39;99610;;;8.31;100
44127;BME280;29786;50.798;7.302;2023-02-21T08:23:35;99610;;;8.25;100
44127;BME280;29786;50.798;7.302;2023-02-21T08:28:32;99610;;;8.27;100
44127;BME280;29786;50.798;7.302;2023-02-21T08:33:28;99610;;;8.6;100
44127;BME280;29786;50.798;7.302;2023-02-21T08:39:39;99600;;;8.79;100
44127;BME280;29786;50.798;7.302;2023-02-21T08:44:36;99600;;;8.67;100
44127;BME280;29786;50.798;7.302;2023-02-21T08:49:32;99600;;;8.89;100
44127;BME280;29786;50.798;7.302;2023-02-21T08:54:29;99600;;;8.82;100
44127;BME280;29786;50.798;7.302;2023-02-21T09:00:39;99600;;;8.84;100
44127;BME280;29786;50.798;7.302;2023-02-21T09:05:36;99600;;;8.84;100
44127;BME280;29786;50.798;7.302;2023-02-21T09:10:32;99600;;;8.84;100
44127;BME280;29786;50.798;7.302;2023-02-21T09:15:29;99590;;;8.78;100
44127;BME280;29786;50.798;7.302;2023-02-21T09:21:44;99590;;;8.99;100
44127;BME280;29786;50.798;7.302;2023-02-21T09:26:36;99580;;;9.02;100
44127;BME280;29786;50.798;7.302;2023-02-21T09:31:33;99580;;;9.16;100
44127;BME280;29786;50.798;7.302;2023-02-21T09:36:29;99570;;;9.85;100
44127;BME280;29786;50.798;7.302;2023-02-21T09:42:40;99570;;;10.16;100
44127;BME280;29786;50.798;7.302;2023-02-21T09:47:36;99570;;;10.09;100
44127;BME280;29786;50.798;7.302;2023-02-21T09:52:34;99550;;;10.18;100
44127;BME280;29786;50.798;7.302;2023-02-21T09:57:29;99580;;;10.48;100
44127;BME280;29786;50.798;7.302;2023-02-21T10:02:35;99580;;;10.69;100
44127;BME280;29786;50.798;7.302;2023-02-21T10:13:37;99550;;;11.36;100
44127;BME280;29786;50.798;7.302;2023-02-21T10:18:32;99570;;;11.47;100
44127;BME280;29786;50.798;7.302;2023-02-21T10:23:34;99570;;;11.52;100
44127;BME280;29786;50.798;7.302;2023-02-21T10:29:47;99570;;;11.02;100
44127;BME280;29786;50.798;7.302;2023-02-21T10:34:33;99560;;;11.3;100
44127;BME280;29786;50.798;7.302;2023-02-21T10:39:33;99570;;;11.27;100
44127;BME280;29786;50.798;7.302;2023-02-21T10:45:44;99570;;;11.21;100
44127;BME280;29786;50.798;7.302;2023-02-21T10:50:43;99560;;;11.34;100
44127;BME280;29786;50.798;7.302;2023-02-21T11:00:33;99560;;;11.15;100
44127;BME280;29786;50.798;7.302;2023-02-21T11:05:27;99560;;;11.51;100
44127;BME280;29786;50.798;7.302;2023-02-21T11:11:39;99550;;;11.87;100
44127;BME280;29786;50.798;7.302;2023-02-21T11:16:34;99540;;;12.14;100
44127;BME280;29786;50.798;7.302;2023-02-21T11:21:30;99540;;;12.15;100
44127;BME280;29786;50.798;7.302;2023-02-21T11:32:38;99520;;;12.42;100
44127;BME280;29786;50.798;7.302;2023-02-21T11:37:45;99510;;;12.83;100
44127;BME280;29786;50.798;7.302;2023-02-21T11:42:32;99500;;;13.6;100
44127;BME280;29786;50.798;7.302;2023-02-21T11:47:30;99500;;;14.65;92.32
44127;BME280;29786;50.798;7.302;2023-02-21T11:53:40;99490;;;16.31;79.19
44127;BME280;29786;50.798;7.302;2023-02-21T11:58:40;99480;;;16.87;67.04
44127;BME280;29786;50.798;7.302;2023-02-21T12:08:34;99460;;;18.79;61.04
44127;BME280;29786;50.798;7.302;2023-02-21T12:14:44;99450;;;19.34;54.43
44127;BME280;29786;50.798;7.302;2023-02-21T12:19:38;99440;;;19.56;53.19
44127;BME280;29786;50.798;7.302;2023-02-21T12:25:09;99440;;;18.76;55.18
44127;BME280;29786;50.798;7.302;2023-02-21T12:29:34;99430;;;19.83;56.25
44127;BME280;29786;50.798;7.302;2023-02-21T12:35:43;99420;;;20.41;52.52
44127;BME280;29786;50.798;7.302;2023-02-21T12:40:43;99410;;;20.04;53.86
44127;BME280;29786;50.798;7.302;2023-02-21T12:45:39;99400;;;20.83;50.29
44127;BME280;29786;50.798;7.302;2023-02-21T12:50:30;99390;;;20.56;50.58
44127;BME280;29786;50.798;7.302;2023-02-21T12:56:48;99380;;;21;48.24
44127;BME280;29786;50.798;7.302;2023-02-21T13:01:38;99380;;;22.17;47.09
44127;BME280;29786;50.798;7.302;2023-02-21T13:06:34;99380;;;23.11;48.2
44127;BME280;29786;50.798;7.302;2023-02-21T13:11:34;99370;;;24.33;42.94
44127;BME280;29786;50.798;7.302;2023-02-21T13:17:39;99360;;;24.53;41.36
44127;BME280;29786;50.798;7.302;2023-02-21T13:27:38;99350;;;23.85;41.37
44127;BME280;29786;50.798;7.302;2023-02-21T13:32:29;99340;;;24.7;41.78
44127;BME280;29786;50.798;7.302;2023-02-21T13:38:39;99330;;;23.11;43.15
44127;BME280;29786;50.798;7.302;2023-02-21T13:43:36;99320;;;24.04;42.1
44127;BME280;29786;50.798;7.302;2023-02-21T13:48:32;99310;;;26.25;37.79
44127;BME280;29786;50.798;7.302;2023-02-21T13:53:30;99300;;;25.68;37.91
44127;BME280;29786;50.798;7.302;2023-02-21T13:58:31;99300;;;25.37;38.29
44127;BME280;29786;50.798;7.302;2023-02-21T14:05:09;99300;;;26.88;35.99
44127;BME280;29786;50.798;7.302;2023-02-21T14:09:33;99290;;;26.45;38.19
44127;BME280;29786;50.798;7.302;2023-02-21T14:14:30;99280;;;26.32;36.64
44127;BME280;29786;50.798;7.302;2023-02-21T14:20:40;99280;;;28.22;34.66
44127;BME280;29786;50.798;7.302;2023-02-21T14:25:36;99270;;;26.24;36.8
44127;BME280;29786;50.798;7.302;2023-02-21T14:30:33;99260;;;28.07;34.13
44127;BME280;29786;50.798;7.302;2023-02-21T14:35:34;99270;;;27.94;34.53
44127;BME280;29786;50.798;7.302;2023-02-21T14:40:30;99270;;;28.46;33.07
44127;BME280;29786;50.798;7.302;2023-02-21T14:46:42;99270;;;28.33;32.9
44127;BME280;29786;50.798;7.302;2023-02-21T14:51:46;99250;;;27.52;33.5
44127;BME280;29786;50.798;7.302;2023-02-21T14:56:36;99260;;;27.67;33.99
44127;BME280;29786;50.798;7.302;2023-02-21T15:01:32;99250;;;28.3;33.32
44127;BME280;29786;50.798;7.302;2023-02-21T15:07:40;99250;;;29.02;32.01
44127;BME280;29786;50.798;7.302;2023-02-21T15:12:34;99230;;;28.97;31.63
44127;BME280;29786;50.798;7.302;2023-02-21T15:17:30;99230;;;31.32;28.02
44127;BME280;29786;50.798;7.302;2023-02-21T15:22:27;99230;;;29.74;30.41
44127;BME280;29786;50.798;7.302;2023-02-21T15:28:37;99230;;;27.59;33.56
44127;BME280;29786;50.798;7.302;2023-02-21T15:33:35;99230;;;28.25;32.25
44127;BME280;29786;50.798;7.302;2023-02-21T15:38:31;99230;;;26.2;35.45
44127;BME280;29786;50.798;7.302;2023-02-21T15:43:29;99230;;;25.36;36.54
44127;BME280;29786;50.798;7.302;2023-02-21T15:49:40;99230;;;25.57;36.35
44127;BME280;29786;50.798;7.302;2023-02-21T15:54:35;99220;;;25.13;37.87
44127;BME280;29786;50.798;7.302;2023-02-21T15:59:31;99220;;;24.65;38.09
44127;BME280;29786;50.798;7.302;2023-02-21T16:10:38;99220;;;22.44;43.08
44127;BME280;29786;50.798;7.302;2023-02-21T16:15:34;99220;;;20.94;46.1
44127;BME280;29786;50.798;7.302;2023-02-21T16:20:32;99220;;;19.59;49.48
44127;BME280;29786;50.798;7.302;2023-02-21T16:25:27;99230;;;17.29;57.66
44127;BME280;29786;50.798;7.302;2023-02-21T16:31:38;99240;;;14.91;80.62
44127;BME280;29786;50.798;7.302;2023-02-21T16:36:34;99240;;;13.69;94.33
44127;BME280;29786;50.798;7.302;2023-02-21T16:41:31;99240;;;12.88;100
44127;BME280;29786;50.798;7.302;2023-02-21T16:46:28;99240;;;12.36;100
44127;BME280;29786;50.798;7.302;2023-02-21T16:52:38;99240;;;11.73;100
44127;BME280;29786;50.798;7.302;2023-02-21T16:57:35;99240;;;11.16;100
44127;BME280;29786;50.798;7.302;2023-02-21T17:02:31;99250;;;10.81;100
44127;BME280;29786;50.798;7.302;2023-02-21T17:07:28;99250;;;10.56;100
44127;BME280;29786;50.798;7.302;2023-02-21T17:13:39;99260;;;10.25;100
44127;BME280;29786;50.798;7.302;2023-02-21T17:18:35;99260;;;9.97;100
44127;BME280;29786;50.798;7.302;2023-02-21T17:23:32;99260;;;9.85;100
44127;BME280;29786;50.798;7.302;2023-02-21T17:34:39;99270;;;9.47;100
44127;BME280;29786;50.798;7.302;2023-02-21T17:39:35;99280;;;9.34;100
44127;BME280;29786;50.798;7.302;2023-02-21T17:44:32;99280;;;9.21;100
44127;BME280;29786;50.798;7.302;2023-02-21T17:49:28;99280;;;9.16;100
44127;BME280;29786;50.798;7.302;2023-02-21T17:55:39;99280;;;9.1;100
44127;BME280;29786;50.798;7.302;2023-02-21T18:00:36;99290;;;9.07;100
44127;BME280;29786;50.798;7.302;2023-02-21T18:05:32;99290;;;8.88;100
44127;BME280;29786;50.798;7.302;2023-02-21T18:10:29;99290;;;8.75;100
44127;BME280;29786;50.798;7.302;2023-02-21T18:16:39;99290;;;8.6;100
44127;BME280;29786;50.798;7.302;2023-02-21T18:21:36;99290;;;8.66;100
44127;BME280;29786;50.798;7.302;2023-02-21T18:26:32;99280;;;8.43;100
44127;BME280;29786;50.798;7.302;2023-02-21T18:31:29;99280;;;8.29;100
44127;BME280;29786;50.798;7.302;2023-02-21T18:37:40;99280;;;8.28;100
44127;BME280;29786;50.798;7.302;2023-02-21T18:42:36;99280;;;8.32;100
44127;BME280;29786;50.798;7.302;2023-02-21T18:47:33;99280;;;8.29;100
44127;BME280;29786;50.798;7.302;2023-02-21T18:52:29;99270;;;8.13;100
44127;BME280;29786;50.798;7.302;2023-02-21T18:58:40;99280;;;7.95;100
44127;BME280;29786;50.798;7.302;2023-02-21T19:03:36;99270;;;7.78;100
44127;BME280;29786;50.798;7.302;2023-02-21T19:08:33;99280;;;7.47;100
44127;BME280;29786;50.798;7.302;2023-02-21T19:13:29;99280;;;7.47;100
44127;BME280;29786;50.798;7.302;2023-02-21T19:19:40;99270;;;7.44;100
44127;BME280;29786;50.798;7.302;2023-02-21T19:24:37;99270;;;7.21;100
44127;BME280;29786;50.798;7.302;2023-02-21T19:29:33;99260;;;7.18;100
44127;BME280;29786;50.798;7.302;2023-02-21T19:34:30;99270;;;7.09;100
44127;BME280;29786;50.798;7.302;2023-02-21T19:40:40;99270;;;6.92;100
44127;BME280;29786;50.798;7.302;2023-02-21T19:45:37;99270;;;6.84;100
44127;BME280;29786;50.798;7.302;2023-02-21T19:50:33;99260;;;6.69;100
44127;BME280;29786;50.798;7.302;2023-02-21T19:55:30;99270;;;6.76;100
44127;BME280;29786;50.798;7.302;2023-02-21T20:01:41;99270;;;6.63;100
44127;BME280;29786;50.798;7.302;2023-02-21T20:06:37;99280;;;6.6;100
44127;BME280;29786;50.798;7.302;2023-02-21T20:11:34;99270;;;6.38;100
44127;BME280;29786;50.798;7.302;2023-02-21T20:16:35;99270;;;6.33;100
44127;BME280;29786;50.798;7.302;2023-02-21T20:21:27;99280;;;6.33;100
44127;BME280;29786;50.798;7.302;2023-02-21T20:27:37;99280;;;6.38;100
44127;BME280;29786;50.798;7.302;2023-02-21T20:32:34;99270;;;6.33;100
44127;BME280;29786;50.798;7.302;2023-02-21T20:37:30;99270;;;6.28;100
44127;BME280;29786;50.798;7.302;2023-02-21T20:42:27;99270;;;6.22;100
44127;BME280;29786;50.798;7.302;2023-02-21T20:48:38;99270;;;6.36;100
44127;BME280;29786;50.798;7.302;2023-02-21T20:53:34;99270;;;6.42;100
44127;BME280;29786;50.798;7.302;2023-02-21T20:58:31;99270;;;6.43;100
44127;BME280;29786;50.798;7.302;2023-02-21T21:03:27;99260;;;6.53;100
44127;BME280;29786;50.798;7.302;2023-02-21T21:09:38;99250;;;6.54;100
44127;BME280;29786;50.798;7.302;2023-02-21T21:14:36;99260;;;6.62;100
44127;BME280;29786;50.798;7.302;2023-02-21T21:19:31;99260;;;6.82;100
44127;BME280;29786;50.798;7.302;2023-02-21T21:24:27;99250;;;7.11;100
44127;BME280;29786;50.798;7.302;2023-02-21T21:30:38;99250;;;7.2;100
44127;BME280;29786;50.798;7.302;2023-02-21T21:35:35;99250;;;7.22;100
44127;BME280;29786;50.798;7.302;2023-02-21T21:40:31;99240;;;7.16;100
44127;BME280;29786;50.798;7.302;2023-02-21T21:45:28;99250;;;7.11;100
44127;BME280;29786;50.798;7.302;2023-02-21T21:51:38;99250;;;7.24;100
44127;BME280;29786;50.798;7.302;2023-02-21T21:56:35;99240;;;7.19;100
44127;BME280;29786;50.798;7.302;2023-02-21T22:01:31;99230;;;7.4;100
44127;BME280;29786;50.798;7.302;2023-02-21T22:12:39;99220;;;7.45;100
44127;BME280;29786;50.798;7.302;2023-02-21T22:17:35;99220;;;7.34;100
44127;BME280;29786;50.798;7.302;2023-02-21T22:22:32;99210;;;7.32;100
44127;BME280;29786;50.798;7.302;2023-02-21T22:27:28;99200;;;7.23;100
44127;BME280;29786;50.798;7.302;2023-02-21T22:33:39;99190;;;7.39;100
44127;BME280;29786;50.798;7.302;2023-02-21T22:38:39;99180;;;7.21;100
44127;BME280;29786;50.798;7.302;2023-02-21T22:43:32;99180;;;7.14;100
44127;BME280;29786;50.798;7.302;2023-02-21T22:48:29;99180;;;7.01;100
44127;BME280;29786;50.798;7.302;2023-02-21T22:54:39;99170;;;6.94;100
44127;BME280;29786;50.798;7.302;2023-02-21T22:59:36;99160;;;7.04;100
44127;BME280;29786;50.798;7.302;2023-02-21T23:04:32;99150;;;7.05;100
44127;BME280;29786;50.798;7.302;2023-02-21T23:09:29;99150;;;6.87;100
44127;BME280;29786;50.798;7.302;2023-02-21T23:15:40;99140;;;6.95;100
44127;BME280;29786;50.798;7.302;2023-02-21T23:20:36;99140;;;6.68;100
44127;BME280;29786;50.798;7.302;2023-02-21T23:25:33;99140;;;6.68;100
44127;BME280;29786;50.798;7.302;2023-02-21T23:30:31;99140;;;6.7;100
44127;BME280;29786;50.798;7.302;2023-02-21T23:36:40;99130;;;6.7;100
44127;BME280;29786;50.798;7.302;2023-02-21T23:41:37;99130;;;6.54;100
44127;BME280;29786;50.798;7.302;2023-02-21T23:46:33;99120;;;6.5;100
44127;BME280;29786;50.798;7.302;2023-02-21T23:51:29;99120;;;6.45;100
44127;BME280;29786;50.798;7.302;2023-02-21T23:57:41;99110;;;6.37;100
